sensor_id;sensor_type;location;lat;lon;timestamp;pressure;altitude;pressure_sealevel;temperature;humidity
50040;BME280;44598;51.606;5.912;2023-02-03T00:10:24;102200;;;9.6;92.7
50040;BME280;44598;51.606;5.912;2023-02-03T00:23:43;102200;;;9.6;92.8
50040;BME280;44598;51.606;5.912;2023-02-03T01:03:43;102200;;;9.6;92.4
50040;BME280;44598;51.606;5.912;2023-02-03T01:17:03;102200;;;9.7;92.0
50040;BME280;44598;51.606;5.912;2023-02-03T01:30:23;102200;;;9.7;91.6
50040;BME280;44598;51.606;5.912;2023-02-03T01:43:42;102200;;;9.8;91.4
50040;BME280;44598;51.606;5.912;2023-02-03T02:10:22;102200;;;9.8;91.0
50040;BME280;44598;51.606;5.912;2023-02-03T02:23:42;102200;;;9.8;90.8
50040;BME280;44598;51.606;5.912;2023-02-03T02:37:01;102100;;;9.8;90.8
50040;BME280;44598;51.606;5.912;2023-02-03T02:50:21;102100;;;9.8;90.4
50040;BME280;44598;51.606;5.912;2023-02-03T03:03:41;102100;;;9.8;89.8
50040;BME280;44598;51.606;5.912;2023-02-03T03:17:01;102100;;;9.8;89.2
50040;BME280;44598;51.606;5.912;2023-02-03T03:30:21;102100;;;9.8;88.9
50040;BME280;44598;51.606;5.912;2023-02-03T03:43:41;102100;;;9.8;88.9
50040;BME280;44598;51.606;5.912;2023-02-03T03:57:00;102100;;;9.9;88.6
50040;BME280;44598;51.606;5.912;2023-02-03T04:10:20;102100;;;9.9;88.5
50040;BME280;44598;51.606;5.912;2023-02-03T04:23:40;102100;;;10.0;88.5
50040;BME280;44598;51.606;5.912;2023-02-03T04:37:00;102100;;;10.0;88.5
50040;BME280;44598;51.606;5.912;2023-02-03T04:50:20;102100;;;10.0;88.0
50040;BME280;44598;51.606;5.912;2023-02-03T05:03:39;102100;;;10.0;88.1
50040;BME280;44598;51.606;5.912;2023-02-03T05:16:59;102100;;;10.1;88.0
50040;BME280;44598;51.606;5.912;2023-02-03T05:30:19;102100;;;10.1;87.9
50040;BME280;44598;51.606;5.912;2023-02-03T05:43:39;102100;;;10.1;87.7
50040;BME280;44598;51.606;5.912;2023-02-03T06:10:19;102100;;;10.2;87.3
50040;BME280;44598;51.606;5.912;2023-02-03T06:23:38;102100;;;10.2;87.5
50040;BME280;44598;51.606;5.912;2023-02-03T06:36:58;102100;;;10.2;87.5
50040;BME280;44598;51.606;5.912;2023-02-03T06:50:18;102100;;;10.3;87.8
50040;BME280;44598;51.606;5.912;2023-02-03T07:03:38;102100;;;10.3;87.9
50040;BME280;44598;51.606;5.912;2023-02-03T07:16:58;102100;;;10.2;87.8
50040;BME280;44598;51.606;5.912;2023-02-03T07:30:17;102100;;;10.3;88.1
50040;BME280;44598;51.606;5.912;2023-02-03T07:43:37;102100;;;10.3;88.2
50040;BME280;44598;51.606;5.912;2023-02-03T07:56:57;102100;;;10.3;88.2
50040;BME280;44598;51.606;5.912;2023-02-03T08:10:17;102200;;;10.3;88.3
50040;BME280;44598;51.606;5.912;2023-02-03T08:23:37;102200;;;10.3;88.4
50040;BME280;44598;51.606;5.912;2023-02-03T08:36:57;102200;;;10.4;88.6
50040;BME280;44598;51.606;5.912;2023-02-03T08:50:16;102200;;;10.4;88.8
50040;BME280;44598;51.606;5.912;2023-02-03T09:03:36;102200;;;10.4;88.9
50040;BME280;44598;51.606;5.912;2023-02-03T09:16:56;102200;;;10.5;89.2
50040;BME280;44598;51.606;5.912;2023-02-03T09:30:16;102200;;;10.5;89.4
50040;BME280;44598;51.606;5.912;2023-02-03T09:43:36;102200;;;10.5;89.4
50040;BME280;44598;51.606;5.912;2023-02-03T09:56:55;102200;;;10.6;89.3
50040;BME280;44598;51.606;5.912;2023-02-03T10:10:15;102200;;;10.7;89.1
50040;BME280;44598;51.606;5.912;2023-02-03T10:23:35;102200;;;10.8;88.8
50040;BME280;44598;51.606;5.912;2023-02-03T10:36:55;102200;;;11.0;88.7
50040;BME280;44598;51.606;5.912;2023-02-03T10:50:15;102200;;;11.1;88.5
50040;BME280;44598;51.606;5.912;2023-02-03T11:03:35;102200;;;11.1;88.1
50040;BME280;44598;51.606;5.912;2023-02-03T11:16:54;102200;;;11.2;88.1
50040;BME280;44598;51.606;5.912;2023-02-03T11:30:14;102300;;;11.3;88.4
50040;BME280;44598;51.606;5.912;2023-02-03T11:43:34;102300;;;11.3;88.4
50040;BME280;44598;51.606;5.912;2023-02-03T11:56:54;102300;;;11.4;87.9
50040;BME280;44598;51.606;5.912;2023-02-03T12:10:14;102300;;;11.4;88.4
50040;BME280;44598;51.606;5.912;2023-02-03T12:23:33;102300;;;11.4;88.4
50040;BME280;44598;51.606;5.912;2023-02-03T12:36:53;102300;;;11.4;88.3
50040;BME280;44598;51.606;5.912;2023-02-03T12:50:13;102300;;;11.4;88.5
50040;BME280;44598;51.606;5.912;2023-02-03T13:03:33;102300;;;11.5;88.3
50040;BME280;44598;51.606;5.912;2023-02-03T13:16:53;102300;;;11.5;88.0
50040;BME280;44598;51.606;5.912;2023-02-03T13:30:12;102300;;;11.6;87.6
50040;BME280;44598;51.606;5.912;2023-02-03T13:56:52;102300;;;11.6;90.4
50040;BME280;44598;51.606;5.912;2023-02-03T14:10:12;102300;;;11.5;89.8
50040;BME280;44598;51.606;5.912;2023-02-03T14:23:32;102300;;;11.4;90.5
50040;BME280;44598;51.606;5.912;2023-02-03T14:36:51;102300;;;11.0;90.6
50040;BME280;44598;51.606;5.912;2023-02-03T14:50:11;102300;;;10.7;91.7
50040;BME280;44598;51.606;5.912;2023-02-03T15:03:31;102400;;;10.6;91.1
50040;BME280;44598;51.606;5.912;2023-02-03T15:16:51;102400;;;10.6;89.7
50040;BME280;44598;51.606;5.912;2023-02-03T15:30:11;102400;;;10.7;89.4
50040;BME280;44598;51.606;5.912;2023-02-03T15:43:30;102400;;;10.7;88.8
50040;BME280;44598;51.606;5.912;2023-02-03T15:56:50;102400;;;10.7;87.8
50040;BME280;44598;51.606;5.912;2023-02-03T16:10:10;102400;;;10.7;88.3
50040;BME280;44598;51.606;5.912;2023-02-03T16:23:30;102400;;;10.7;88.1
50040;BME280;44598;51.606;5.912;2023-02-03T16:50:10;102400;;;10.5;89.1
50040;BME280;44598;51.606;5.912;2023-02-03T17:03:29;102500;;;10.3;89.6
50040;BME280;44598;51.606;5.912;2023-02-03T17:30:09;102500;;;10.1;90.2
50040;BME280;44598;51.606;5.912;2023-02-03T17:43:29;102500;;;10.1;90.7
50040;BME280;44598;51.606;5.912;2023-02-03T17:56:49;102500;;;10.0;91.3
50040;BME280;44598;51.606;5.912;2023-02-03T18:10:08;102600;;;10.0;91.6
50040;BME280;44598;51.606;5.912;2023-02-03T18:23:28;102600;;;10.0;91.7
50040;BME280;44598;51.606;5.912;2023-02-03T18:36:48;102600;;;10.0;91.6
50040;BME280;44598;51.606;5.912;2023-02-03T18:50:08;102600;;;10.0;92.0
50040;BME280;44598;51.606;5.912;2023-02-03T19:03:28;102600;;;10.0;91.5
50040;BME280;44598;51.606;5.912;2023-02-03T19:16:48;102700;;;10.0;89.9
50040;BME280;44598;51.606;5.912;2023-02-03T19:30:07;102700;;;10.0;88.9
50040;BME280;44598;51.606;5.912;2023-02-03T19:43:27;102700;;;9.9;87.6
50040;BME280;44598;51.606;5.912;2023-02-03T19:56:47;102700;;;9.8;86.5
50040;BME280;44598;51.606;5.912;2023-02-03T20:10:07;102700;;;9.7;86.0
50040;BME280;44598;51.606;5.912;2023-02-03T20:23:27;102700;;;9.7;85.4
50040;BME280;44598;51.606;5.912;2023-02-03T20:36:46;102700;;;9.6;85.9
50040;BME280;44598;51.606;5.912;2023-02-03T20:50:06;102700;;;9.6;87.1
50040;BME280;44598;51.606;5.912;2023-02-03T21:03:26;102700;;;9.6;87.2
50040;BME280;44598;51.606;5.912;2023-02-03T21:16:46;102700;;;9.6;88.1
50040;BME280;44598;51.606;5.912;2023-02-03T21:30:06;102700;;;9.7;88.6
50040;BME280;44598;51.606;5.912;2023-02-03T21:43:26;102700;;;9.7;87.3
50040;BME280;44598;51.606;5.912;2023-02-03T21:56:46;102700;;;9.6;87.0
50040;BME280;44598;51.606;5.912;2023-02-03T22:23:25;102800;;;9.5;87.1
50040;BME280;44598;51.606;5.912;2023-02-03T22:36:45;102800;;;9.5;86.7
50040;BME280;44598;51.606;5.912;2023-02-03T22:50:05;102800;;;9.5;86.6
50040;BME280;44598;51.606;5.912;2023-02-03T23:03:24;102800;;;9.4;86.1
50040;BME280;44598;51.606;5.912;2023-02-03T23:16:44;102800;;;9.3;86.5
50040;BME280;44598;51.606;5.912;2023-02-03T23:30:04;102800;;;9.2;87.4
50040;BME280;44598;51.606;5.912;2023-02-03T23:43:24;102900;;;9.2;87.6
